Time;durP1;ratioP1;P1;durP2;ratioP2;P2;SDS_P1;SDS_P2;PMS_P1;PMS_P2;Temp;Humidity;BMP_temperature;BMP_pressure;BME280_temperature;BME280_humidity;BME280_pressure;Samples;Min_cycle;Max_cycle;Signal;HPM_P1;HPM_P2
2022/06/08 00:00:14;;;;;;;;;;;15.80;99.90;;;;;;4975709;28;20009;-84
2022/06/08 00:02:43;;;;;;;;;;;15.90;99.90;;;;;;4974474;28;20021;-83
2022/06/08 00:05:10;;;;;;;;;;;15.80;99.90;;;;;;4956110;28;19962;-83
2022/06/08 00:07:37;;;;;;;;;;;15.80;99.90;;;;;;4952977;28;19930;-84
2022/06/08 00:10:05;;;;;;;;;;;15.80;99.90;;;;;;4954868;28;19930;-84
2022/06/08 00:12:32;;;;;;;;;;;15.80;99.90;;;;;;4957203;28;19958;-83
2022/06/08 00:15:00;;;;;;;;;;;15.80;99.90;;;;;;4954810;28;19990;-84
2022/06/08 00:17:27;;;;;;;;;;;15.80;99.90;;;;;;4968157;28;19931;-83
2022/06/08 00:19:55;;;;;;;;;;;15.80;99.90;;;;;;4959502;28;20065;-84
2022/06/08 00:22:21;;;;;;;;;;;15.70;99.90;;;;;;4961884;28;19937;-83
2022/06/08 00:24:48;;;;;;;;;;;15.70;99.90;;;;;;4968940;28;19973;-83
2022/06/08 00:27:15;;;;;;;;;;;15.70;99.90;;;;;;4960308;28;19926;-86
2022/06/08 00:29:43;;;;;;;;;;;15.70;99.90;;;;;;4952149;28;20393;-86
2022/06/08 00:32:11;;;;;;;;;;;15.70;99.90;;;;;;4950322;28;20074;-86
2022/06/08 00:34:40;;;;;;;;;;;15.70;99.90;;;;;;4961227;28;19926;-86
2022/06/08 00:37:07;;;;;;;;;;;15.60;99.90;;;;;;4967587;28;20297;-86
2022/06/08 00:39:34;;;;;;;;;;;15.60;99.90;;;;;;5029262;28;19931;-86
2022/06/08 00:42:03;;;;;;;;;;;15.60;99.90;;;;;;4947249;28;19953;-86
2022/06/08 00:44:32;;;;;;;;;;;15.60;99.90;;;;;;4952646;28;19926;-86
2022/06/08 00:47:00;;;;;;;;;;;15.60;99.90;;;;;;4951761;28;20022;-86
2022/06/08 00:49:29;;;;;;;;;;;15.60;99.90;;;;;;5038126;28;19933;-86
2022/06/08 00:51:58;;;;;;;;;;;15.60;99.90;;;;;;4948098;28;20038;-86
2022/06/08 00:54:26;;;;;;;;;;;15.60;99.90;;;;;;4949717;28;19937;-86
2022/06/08 00:56:55;;;;;;;;;;;15.60;99.90;;;;;;4965898;28;19933;-86
2022/06/08 00:59:23;;;;;;;;;;;15.50;99.90;;;;;;4949875;28;19927;-86
2022/06/08 01:01:50;;;;;;;;;;;15.50;99.90;;;;;;4963937;28;19932;-86
2022/06/08 01:04:18;;;;;;;;;;;15.50;99.90;;;;;;4950898;28;19926;-85
2022/06/08 01:06:52;;;;;;;;;;;15.50;99.90;;;;;;4946899;28;20355;-85
2022/06/08 01:09:24;;;;;;;;;;;15.50;99.90;;;;;;4958899;28;20044;-86
2022/06/08 01:11:51;;;;;;;;;;;15.40;99.90;;;;;;4967943;28;19991;-86
2022/06/08 01:14:20;;;;;;;;;;;15.40;99.90;;;;;;4947988;28;19973;-86
2022/06/08 01:16:49;;;;;;;;;;;15.40;99.90;;;;;;4962691;28;19934;-85
2022/06/08 01:19:19;;;;;;;;;;;15.40;99.90;;;;;;4947847;28;19931;-85
2022/06/08 01:21:51;;;;;;;;;;;15.40;99.90;;;;;;4952952;28;20002;-86
2022/06/08 01:24:28;;;;;;;;;;;15.40;99.90;;;;;;5021814;28;19930;-85
2022/06/08 01:27:04;;;;;;;;;;;15.40;99.90;;;;;;4942073;28;19926;-85
2022/06/08 01:29:36;;;;;;;;;;;15.40;99.90;;;;;;4958927;28;19933;-86
2022/06/08 01:32:06;;;;;;;;;;;15.40;99.90;;;;;;4965372;28;20616;-85
2022/06/08 01:34:38;;;;;;;;;;;15.30;99.90;;;;;;4948986;28;20405;-86
2022/06/08 01:37:12;;;;;;;;;;;15.40;99.90;;;;;;4946264;28;20037;-86
2022/06/08 01:39:47;;;;;;;;;;;15.40;99.90;;;;;;4943698;28;20448;-86
2022/06/08 01:42:19;;;;;;;;;;;15.30;99.90;;;;;;4948864;28;19927;-86
2022/06/08 01:47:49;;;;;;;;;;;15.30;99.90;;;;;;4964038;28;20401;-86
2022/06/08 01:50:19;;;;;;;;;;;15.30;99.90;;;;;;4963628;28;19969;-86
2022/06/08 01:52:53;;;;;;;;;;;15.30;99.90;;;;;;4947087;28;19965;-86
2022/06/08 01:55:24;;;;;;;;;;;15.30;99.90;;;;;;4969291;28;19942;-86
2022/06/08 01:57:55;;;;;;;;;;;15.20;99.90;;;;;;4949702;28;19927;-85
2022/06/08 02:00:24;;;;;;;;;;;15.20;99.90;;;;;;4947566;28;19930;-86
2022/06/08 02:03:00;;;;;;;;;;;15.20;99.90;;;;;;4956295;28;19926;-86
2022/06/08 02:05:33;;;;;;;;;;;15.20;99.90;;;;;;4955583;28;19941;-86
2022/06/08 02:08:11;;;;;;;;;;;15.20;99.90;;;;;;4979218;28;19946;-87
2022/06/08 02:10:41;;;;;;;;;;;15.20;99.90;;;;;;4949984;28;19927;-85
2022/06/08 02:13:15;;;;;;;;;;;15.20;99.90;;;;;;4943540;28;19934;-86
2022/06/08 02:15:44;;;;;;;;;;;15.10;99.90;;;;;;4959515;28;19994;-85
2022/06/08 02:18:17;;;;;;;;;;;15.10;99.90;;;;;;5037851;28;19926;-85
2022/06/08 02:20:47;;;;;;;;;;;15.10;99.90;;;;;;4952222;28;19945;-86
2022/06/08 02:23:20;;;;;;;;;;;15.10;99.90;;;;;;4974619;28;19980;-86
2022/06/08 02:25:50;;;;;;;;;;;15.10;99.90;;;;;;4964490;28;20317;-85
2022/06/08 02:28:19;;;;;;;;;;;15.10;99.90;;;;;;4952980;28;19942;-86
2022/06/08 02:30:50;;;;;;;;;;;15.00;99.90;;;;;;5039745;28;20397;-86
2022/06/08 02:36:07;;;;;;;;;;;15.00;99.90;;;;;;4963061;28;20492;-85
2022/06/08 02:38:37;;;;;;;;;;;15.00;99.90;;;;;;4950806;28;19927;-85
2022/06/08 02:41:07;;;;;;;;;;;15.00;99.90;;;;;;4946620;28;19969;-87
2022/06/08 02:43:36;;;;;;;;;;;15.00;99.90;;;;;;4957316;28;19989;-86
2022/06/08 02:46:10;;;;;;;;;;;15.00;99.90;;;;;;4974034;28;19934;-87
2022/06/08 02:48:37;;;;;;;;;;;14.90;99.90;;;;;;4965359;28;19980;-85
2022/06/08 02:51:05;;;;;;;;;;;14.90;99.90;;;;;;4962817;28;20324;-87
2022/06/08 02:53:43;;;;;;;;;;;14.90;99.90;;;;;;4965073;28;19927;-85
2022/06/08 02:56:14;;;;;;;;;;;14.90;99.90;;;;;;4967606;28;20018;-86
2022/06/08 02:58:45;;;;;;;;;;;14.80;99.90;;;;;;4953308;28;19958;-86
2022/06/08 03:01:16;;;;;;;;;;;14.90;99.90;;;;;;4970750;28;19933;-86
2022/06/08 03:03:45;;;;;;;;;;;14.90;99.90;;;;;;4957159;28;20013;-85
2022/06/08 03:06:15;;;;;;;;;;;14.80;99.90;;;;;;4962649;28;20614;-85
2022/06/08 03:08:49;;;;;;;;;;;14.80;99.90;;;;;;4950870;28;20025;-86
2022/06/08 03:11:17;;;;;;;;;;;;;;;;;;4954660;28;19962;-84
2022/06/08 03:13:46;;;;;;;;;;;14.80;99.90;;;;;;4956929;28;19935;-83
2022/06/08 03:16:24;;;;;;;;;;;14.80;99.90;;;;;;4952722;28;20010;-86
2022/06/08 03:18:53;;;;;;;;;;;14.80;99.90;;;;;;4963501;28;19926;-86
2022/06/08 03:21:20;;;;;;;;;;;14.70;99.90;;;;;;4948601;28;19950;-86
2022/06/08 03:23:50;;;;;;;;;;;14.70;99.90;;;;;;4947407;28;19927;-85
2022/06/08 03:26:18;;;;;;;;;;;14.70;99.90;;;;;;4953331;28;20355;-86
2022/06/08 03:28:45;;;;;;;;;;;14.70;99.90;;;;;;4972414;28;19958;-86
2022/06/08 03:31:12;;;;;;;;;;;14.70;99.90;;;;;;4955410;28;19952;-86
2022/06/08 03:33:40;;;;;;;;;;;14.60;99.90;;;;;;4951375;28;20360;-86
2022/06/08 03:36:09;;;;;;;;;;;14.50;99.90;;;;;;4953390;28;19926;-86
2022/06/08 03:38:36;;;;;;;;;;;14.40;99.90;;;;;;4947526;28;19926;-85
2022/06/08 03:41:04;;;;;;;;;;;14.30;99.90;;;;;;4951008;28;20313;-86
2022/06/08 03:43:31;;;;;;;;;;;14.30;99.90;;;;;;5038936;28;19934;-85
2022/06/08 03:45:59;;;;;;;;;;;14.20;99.90;;;;;;4968771;28;20411;-85
2022/06/08 03:48:27;;;;;;;;;;;14.30;99.90;;;;;;4964983;28;20021;-85
2022/06/08 03:50:56;;;;;;;;;;;14.20;99.90;;;;;;4958569;28;19927;-85
2022/06/08 03:53:25;;;;;;;;;;;14.20;99.90;;;;;;4952052;28;20364;-85
2022/06/08 03:55:53;;;;;;;;;;;14.10;99.90;;;;;;4957089;28;19931;-85
2022/06/08 03:58:22;;;;;;;;;;;14.20;99.90;;;;;;4960829;28;19954;-86
2022/06/08 04:00:49;;;;;;;;;;;14.10;99.90;;;;;;4948422;28;19966;-84
2022/06/08 04:03:18;;;;;;;;;;;14.10;99.90;;;;;;4970519;28;19927;-86
2022/06/08 04:05:46;;;;;;;;;;;14.10;99.90;;;;;;4956167;28;19976;-85
2022/06/08 04:08:22;;;;;;;;;;;14.10;99.90;;;;;;4960510;28;19934;-85
2022/06/08 04:10:53;;;;;;;;;;;14.00;99.90;;;;;;4968490;28;19927;-85
2022/06/08 04:13:21;;;;;;;;;;;14.00;99.90;;;;;;4961323;28;20637;-85
2022/06/08 04:15:51;;;;;;;;;;;14.10;99.90;;;;;;4968370;28;19979;-86
2022/06/08 04:18:28;;;;;;;;;;;14.00;99.90;;;;;;4971423;28;19967;-85
2022/06/08 04:21:01;;;;;;;;;;;14.00;99.90;;;;;;4955544;28;19930;-85
2022/06/08 04:23:37;;;;;;;;;;;14.00;99.90;;;;;;4952371;28;20312;-83
2022/06/08 04:26:05;;;;;;;;;;;14.00;99.90;;;;;;4951823;28;19949;-85
2022/06/08 04:28:34;;;;;;;;;;;14.00;99.90;;;;;;4969321;28;19927;-86
2022/06/08 04:31:07;;;;;;;;;;;14.00;99.90;;;;;;4958079;28;19931;-85
2022/06/08 04:33:37;;;;;;;;;;;13.90;99.90;;;;;;4959357;28;19935;-85
2022/06/08 04:36:05;;;;;;;;;;;13.90;99.90;;;;;;4963252;28;19977;-84
2022/06/08 04:38:33;;;;;;;;;;;13.90;99.90;;;;;;4962477;28;19933;-85
2022/06/08 04:41:00;;;;;;;;;;;13.90;99.90;;;;;;4956323;28;19935;-85
2022/06/08 04:43:28;;;;;;;;;;;13.90;99.90;;;;;;4967589;28;21745;-84
2022/06/08 04:45:57;;;;;;;;;;;13.90;99.90;;;;;;4977344;28;20041;-85
2022/06/08 04:48:24;;;;;;;;;;;13.90;99.90;;;;;;4958707;28;19930;-85
2022/06/08 04:50:52;;;;;;;;;;;13.90;99.90;;;;;;4957223;28;20170;-85
2022/06/08 04:53:19;;;;;;;;;;;13.90;99.90;;;;;;4968602;28;19933;-86
2022/06/08 04:55:46;;;;;;;;;;;13.90;99.90;;;;;;4970565;28;19980;-85
2022/06/08 04:58:14;;;;;;;;;;;13.90;99.90;;;;;;4965875;28;19956;-86
2022/06/08 05:00:42;;;;;;;;;;;14.00;99.90;;;;;;4961596;28;19926;-85
2022/06/08 05:03:12;;;;;;;;;;;14.00;99.90;;;;;;4969787;28;19937;-86
2022/06/08 05:05:43;;;;;;;;;;;13.90;99.90;;;;;;4957102;28;19930;-85
2022/06/08 05:08:16;;;;;;;;;;;14.00;99.90;;;;;;4966187;28;19994;-86
2022/06/08 05:10:46;;;;;;;;;;;14.00;99.90;;;;;;4971729;28;19934;-85
2022/06/08 05:13:17;;;;;;;;;;;14.00;99.90;;;;;;4968732;28;19926;-85
2022/06/08 05:15:47;;;;;;;;;;;14.00;99.90;;;;;;4969885;28;20014;-86
2022/06/08 05:18:18;;;;;;;;;;;14.00;99.90;;;;;;4977113;28;20213;-85
2022/06/08 05:20:46;;;;;;;;;;;14.10;99.90;;;;;;4950102;28;19934;-85
2022/06/08 05:23:18;;;;;;;;;;;14.10;99.90;;;;;;4973362;28;19937;-85
2022/06/08 05:25:47;;;;;;;;;;;14.10;99.90;;;;;;4953095;28;19927;-85
2022/06/08 05:28:16;;;;;;;;;;;14.10;99.90;;;;;;4955402;28;19926;-85
2022/06/08 05:30:50;;;;;;;;;;;14.10;99.90;;;;;;4957583;28;19953;-85
2022/06/08 05:33:19;;;;;;;;;;;14.10;99.90;;;;;;4962048;28;19934;-84
2022/06/08 05:35:47;;;;;;;;;;;14.10;99.90;;;;;;4949746;28;19937;-85
2022/06/08 05:38:16;;;;;;;;;;;14.10;99.90;;;;;;4966572;28;19930;-85
2022/06/08 05:40:42;;;;;;;;;;;14.10;99.90;;;;;;4957537;28;19934;-85
2022/06/08 05:43:12;;;;;;;;;;;14.20;99.90;;;;;;4960955;28;19984;-85
2022/06/08 05:45:43;;;;;;;;;;;14.10;99.90;;;;;;4969162;28;19934;-85
2022/06/08 05:48:10;;;;;;;;;;;14.10;99.90;;;;;;4957687;28;19931;-84
2022/06/08 05:50:42;;;;;;;;;;;14.10;99.90;;;;;;4943763;28;20328;-85
2022/06/08 05:53:13;;;;;;;;;;;14.10;99.90;;;;;;4960422;28;19927;-86
2022/06/08 05:55:40;;;;;;;;;;;14.10;99.90;;;;;;4964536;28;19931;-84
2022/06/08 05:58:07;;;;;;;;;;;14.10;99.90;;;;;;4967267;28;19927;-82
2022/06/08 06:00:36;;;;;;;;;;;14.10;99.90;;;;;;4960880;28;19991;-85
2022/06/08 06:03:04;;;;;;;;;;;14.10;99.90;;;;;;4953287;28;19935;-85
2022/06/08 06:05:33;;;;;;;;;;;14.10;99.90;;;;;;4948169;28;19972;-85
2022/06/08 06:08:07;;;;;;;;;;;14.10;99.90;;;;;;4954599;28;19981;-84
2022/06/08 06:10:38;;;;;;;;;;;14.10;99.90;;;;;;4947019;28;19933;-86
2022/06/08 06:13:06;;;;;;;;;;;14.20;99.90;;;;;;4954626;28;19927;-85
2022/06/08 06:15:54;;;;;;;;;;;14.20;99.90;;;;;;4955633;28;19931;-85
2022/06/08 06:18:21;;;;;;;;;;;14.30;99.90;;;;;;4964804;28;19927;-85
2022/06/08 06:20:58;;;;;;;;;;;14.30;99.90;;;;;;4960668;28;19930;-85
2022/06/08 06:23:31;;;;;;;;;;;14.30;99.90;;;;;;4943287;28;19980;-85
2022/06/08 06:26:07;;;;;;;;;;;14.30;99.90;;;;;;4963053;28;19927;-85
2022/06/08 06:28:48;;;;;;;;;;;14.40;99.90;;;;;;4954095;28;19966;-84
2022/06/08 06:31:17;;;;;;;;;;;14.40;99.90;;;;;;4950376;28;19934;-83
2022/06/08 06:33:54;;;;;;;;;;;14.40;99.90;;;;;;4942924;28;19927;-85
2022/06/08 06:36:22;;;;;;;;;;;14.50;99.90;;;;;;4960386;28;19934;-85
2022/06/08 06:38:50;;;;;;;;;;;14.50;99.90;;;;;;4946928;28;20351;-86
2022/06/08 06:41:18;;;;;;;;;;;14.50;99.90;;;;;;4963588;28;19927;-85
2022/06/08 06:43:48;;;;;;;;;;;14.60;99.90;;;;;;4963280;28;19931;-85
2022/06/08 06:46:37;;;;;;;;;;;14.70;99.90;;;;;;4952692;28;20359;-85
2022/06/08 06:49:09;;;;;;;;;;;14.70;99.90;;;;;;4952882;28;19926;-84
2022/06/08 06:51:37;;;;;;;;;;;14.70;99.90;;;;;;4957564;28;19981;-84
2022/06/08 06:54:07;;;;;;;;;;;14.70;99.90;;;;;;4956684;28;19930;-85
2022/06/08 06:56:36;;;;;;;;;;;14.70;99.90;;;;;;4958524;28;20012;-85
2022/06/08 06:59:08;;;;;;;;;;;14.70;99.90;;;;;;4957919;28;19937;-85
2022/06/08 07:01:35;;;;;;;;;;;14.80;99.90;;;;;;4962840;28;19966;-86
2022/06/08 07:04:02;;;;;;;;;;;14.80;99.90;;;;;;4943700;28;20504;-86
2022/06/08 07:06:30;;;;;;;;;;;14.80;99.90;;;;;;4951169;28;19927;-86
2022/06/08 07:09:00;;;;;;;;;;;14.80;99.90;;;;;;4953112;28;20626;-84
2022/06/08 07:11:35;;;;;;;;;;;14.80;99.90;;;;;;4952145;28;19931;-85
2022/06/08 07:14:25;;;;;;;;;;;14.80;99.90;;;;;;4972890;28;20389;-86
2022/06/08 07:17:03;;;;;;;;;;;14.80;99.90;;;;;;4954031;28;19934;-85
2022/06/08 07:19:34;;;;;;;;;;;14.90;99.90;;;;;;4967795;28;19931;-85
2022/06/08 07:22:01;;;;;;;;;;;14.90;99.90;;;;;;4960160;28;20452;-85
2022/06/08 07:24:30;;;;;;;;;;;14.90;99.90;;;;;;4952521;28;19930;-84
2022/06/08 07:26:59;;;;;;;;;;;14.90;99.90;;;;;;4955847;28;19984;-85
2022/06/08 07:29:25;;;;;;;;;;;14.90;99.90;;;;;;4956152;28;19927;-85
2022/06/08 07:31:53;;;;;;;;;;;14.90;99.90;;;;;;4950226;28;19934;-85
2022/06/08 07:34:20;;;;;;;;;;;15.00;99.90;;;;;;4955554;28;19933;-85
2022/06/08 07:36:47;;;;;;;;;;;15.00;99.90;;;;;;4960936;28;19927;-85
2022/06/08 07:39:15;;;;;;;;;;;15.00;99.90;;;;;;4951804;28;20010;-86
2022/06/08 07:41:43;;;;;;;;;;;15.00;99.90;;;;;;4946976;28;19930;-85
2022/06/08 07:44:11;;;;;;;;;;;15.00;99.90;;;;;;4946704;28;19934;-86
2022/06/08 07:46:39;;;;;;;;;;;15.00;99.90;;;;;;4954768;28;19935;-85
2022/06/08 07:51:53;;;;;;;;;;;15.10;99.90;;;;;;4971164;28;19970;-85
2022/06/08 07:54:22;;;;;;;;;;;15.10;99.90;;;;;;4957981;28;19934;-85
2022/06/08 07:56:49;;;;;;;;;;;15.10;99.90;;;;;;4969570;28;19926;-85
2022/06/08 07:59:17;;;;;;;;;;;15.20;99.90;;;;;;4953476;28;19933;-85
2022/06/08 08:01:44;;;;;;;;;;;15.20;99.90;;;;;;4954531;28;19987;-85
2022/06/08 08:04:11;;;;;;;;;;;15.20;99.90;;;;;;5045855;28;19936;-85
2022/06/08 08:06:38;;;;;;;;;;;15.20;99.90;;;;;;4970775;28;20308;-85
2022/06/08 08:09:04;;;;;;;;;;;15.20;99.90;;;;;;4954016;28;19938;-85
2022/06/08 08:11:31;;;;;;;;;;;15.20;99.90;;;;;;4953542;28;20420;-85
2022/06/08 08:13:58;;;;;;;;;;;15.20;99.90;;;;;;4979530;28;20343;-84
2022/06/08 08:16:27;;;;;;;;;;;15.30;99.90;;;;;;4950550;28;19939;-85
2022/06/08 08:18:53;;;;;;;;;;;15.30;99.90;;;;;;4950846;28;19931;-85
2022/06/08 08:21:20;;;;;;;;;;;15.30;99.90;;;;;;4956300;28;20408;-85
2022/06/08 08:23:47;;;;;;;;;;;15.30;99.90;;;;;;4960278;28;20392;-85
2022/06/08 08:26:14;;;;;;;;;;;15.30;99.90;;;;;;4956395;28;20025;-85
2022/06/08 08:28:41;;;;;;;;;;;15.30;99.90;;;;;;4951765;28;19930;-85
2022/06/08 08:31:08;;;;;;;;;;;15.40;99.90;;;;;;4961280;28;19926;-85
2022/06/08 08:33:37;;;;;;;;;;;15.40;99.90;;;;;;4948647;28;19926;-85
2022/06/08 08:36:04;;;;;;;;;;;15.40;99.90;;;;;;4953389;28;19988;-85
2022/06/08 08:38:31;;;;;;;;;;;15.40;99.90;;;;;;4955070;28;19931;-85
2022/06/08 08:40:59;;;;;;;;;;;15.50;99.90;;;;;;4947870;28;20393;-85
2022/06/08 08:43:29;;;;;;;;;;;15.50;99.90;;;;;;4945224;28;21110;-84
2022/06/08 08:46:09;;;;;;;;;;;15.50;99.90;;;;;;4968592;28;19994;-86
2022/06/08 08:48:39;;;;;;;;;;;15.50;99.90;;;;;;4948681;28;19940;-85
2022/06/08 08:51:11;;;;;;;;;;;15.50;99.90;;;;;;4981978;28;19927;-85
2022/06/08 08:53:43;;;;;;;;;;;15.60;99.90;;;;;;4966080;28;20029;-85
2022/06/08 08:56:16;;;;;;;;;;;15.60;99.90;;;;;;4955921;28;19931;-85
2022/06/08 08:58:44;;;;;;;;;;;15.60;99.90;;;;;;4942465;28;19938;-85
2022/06/08 09:01:15;;;;;;;;;;;15.60;99.90;;;;;;4951584;28;19930;-84
2022/06/08 09:03:44;;;;;;;;;;;15.60;99.90;;;;;;4956487;28;19965;-85
2022/06/08 09:06:13;;;;;;;;;;;15.60;99.90;;;;;;4947308;28;19934;-85
2022/06/08 09:08:40;;;;;;;;;;;15.60;99.90;;;;;;4945209;28;19938;-84
2022/06/08 09:11:13;;;;;;;;;;;15.70;99.90;;;;;;4962353;28;19988;-85
2022/06/08 09:13:45;;;;;;;;;;;15.70;99.90;;;;;;4947988;28;20116;-85
2022/06/08 09:16:25;;;;;;;;;;;15.70;99.90;;;;;;4943045;28;19934;-86
2022/06/08 09:18:55;;;;;;;;;;;15.70;99.90;;;;;;4945911;28;20394;-85
2022/06/08 09:21:27;;;;;;;;;;;15.70;99.90;;;;;;4947320;28;19937;-85
2022/06/08 09:23:56;;;;;;;;;;;15.70;99.90;;;;;;4945502;28;19927;-83
2022/06/08 09:26:43;;;;;;;;;;;15.70;99.90;;;;;;4947818;28;19932;-83
2022/06/08 09:29:15;;;;;;;;;;;15.70;99.90;;;;;;4948733;28;19950;-86
2022/06/08 09:31:43;;;;;;;;;;;15.80;99.90;;;;;;4960626;28;19942;-85
2022/06/08 09:34:19;;;;;;;;;;;15.80;99.90;;;;;;4949594;28;19933;-84
2022/06/08 09:36:47;;;;;;;;;;;15.80;99.90;;;;;;4952619;28;19949;-85
2022/06/08 09:39:15;;;;;;;;;;;15.80;99.90;;;;;;4950132;28;20399;-85
2022/06/08 09:41:48;;;;;;;;;;;15.90;99.90;;;;;;4958476;28;19926;-86
2022/06/08 09:44:20;;;;;;;;;;;15.90;99.90;;;;;;5027473;28;19933;-85
2022/06/08 09:52:35;;;;;;;;;;;15.90;99.90;;;;;;5043299;28;19926;-85
2022/06/08 09:55:08;;;;;;;;;;;15.90;99.90;;;;;;4964646;28;19942;-86
2022/06/08 09:57:41;;;;;;;;;;;16.00;99.90;;;;;;4955576;28;19984;-85
2022/06/08 10:00:17;;;;;;;;;;;16.00;99.90;;;;;;4948558;28;20645;-86
2022/06/08 10:02:48;;;;;;;;;;;16.00;99.90;;;;;;4959492;28;19943;-84
2022/06/08 10:05:23;;;;;;;;;;;16.00;99.90;;;;;;4958571;28;19957;-85
2022/06/08 10:07:54;;;;;;;;;;;16.00;99.90;;;;;;4956919;28;20020;-84
2022/06/08 10:10:28;;;;;;;;;;;16.00;99.90;;;;;;4951638;28;19930;-85
2022/06/08 10:12:57;;;;;;;;;;;16.10;99.90;;;;;;4963867;28;20698;-85
2022/06/08 10:15:27;;;;;;;;;;;16.10;99.90;;;;;;4954292;28;20023;-86
2022/06/08 10:17:57;;;;;;;;;;;16.10;99.90;;;;;;4975198;28;19925;-85
2022/06/08 10:20:30;;;;;;;;;;;16.10;99.90;;;;;;4941962;28;20002;-85
2022/06/08 10:22:59;;;;;;;;;;;16.20;99.90;;;;;;4958655;28;20408;-85
2022/06/08 10:25:31;;;;;;;;;;;16.10;99.90;;;;;;4948832;28;19927;-85
2022/06/08 10:28:00;;;;;;;;;;;16.20;99.90;;;;;;4958031;28;20385;-84
2022/06/08 10:30:29;;;;;;;;;;;16.20;99.90;;;;;;4945524;28;19930;-85
2022/06/08 10:33:00;;;;;;;;;;;16.20;99.90;;;;;;4968528;28;20601;-85
2022/06/08 10:35:32;;;;;;;;;;;16.20;99.90;;;;;;4956026;28;19927;-85
2022/06/08 10:38:00;;;;;;;;;;;16.20;99.90;;;;;;4948658;28;20281;-85
2022/06/08 10:40:28;;;;;;;;;;;16.30;99.90;;;;;;4951306;28;19962;-85
2022/06/08 10:42:55;;;;;;;;;;;16.30;99.90;;;;;;4945640;28;20531;-84
2022/06/08 10:45:44;;;;;;;;;;;16.30;99.90;;;;;;4954487;28;19926;-83
2022/06/08 10:48:33;;;;;;;;;;;16.30;99.90;;;;;;4951379;28;19927;-85
2022/06/08 10:51:19;;;;;;;;;;;16.30;99.90;;;;;;4956970;28;19957;-85
2022/06/08 10:56:45;;;;;;;;;;;16.40;99.90;;;;;;4963104;28;19987;-86
2022/06/08 10:59:14;;;;;;;;;;;16.40;99.90;;;;;;4965027;28;19931;-84
2022/06/08 11:01:47;;;;;;;;;;;16.40;99.90;;;;;;4968900;28;19930;-86
2022/06/08 11:04:30;;;;;;;;;;;16.50;99.90;;;;;;4952543;28;19934;-86
2022/06/08 11:06:59;;;;;;;;;;;16.50;99.90;;;;;;4948519;28;20367;-86
2022/06/08 11:09:44;;;;;;;;;;;16.50;99.90;;;;;;4964215;28;20593;-84
2022/06/08 11:12:23;;;;;;;;;;;16.60;99.90;;;;;;4947191;28;19937;-85
2022/06/08 11:14:52;;;;;;;;;;;16.60;99.90;;;;;;4945469;28;19933;-85
2022/06/08 11:17:23;;;;;;;;;;;16.60;99.90;;;;;;4957847;28;19927;-86
2022/06/08 11:19:53;;;;;;;;;;;16.60;99.90;;;;;;4952188;28;20396;-85
2022/06/08 11:22:22;;;;;;;;;;;16.70;99.90;;;;;;4955628;28;19927;-83
2022/06/08 11:24:53;;;;;;;;;;;16.70;99.90;;;;;;4958064;28;20359;-83
2022/06/08 11:27:26;;;;;;;;;;;16.70;99.90;;;;;;4953345;28;20025;-83
2022/06/08 11:29:54;;;;;;;;;;;16.70;99.90;;;;;;4951241;28;19942;-84
2022/06/08 11:32:39;;;;;;;;;;;16.80;99.90;;;;;;4963816;28;19932;-83
2022/06/08 11:35:24;;;;;;;;;;;16.80;99.90;;;;;;4946087;28;19933;-83
2022/06/08 11:37:54;;;;;;;;;;;16.80;99.90;;;;;;4965960;28;20457;-84
2022/06/08 11:40:25;;;;;;;;;;;16.80;99.90;;;;;;4951121;28;19945;-83
2022/06/08 11:42:56;;;;;;;;;;;16.90;99.90;;;;;;4952097;28;19931;-83
2022/06/08 11:45:24;;;;;;;;;;;16.90;99.90;;;;;;4965408;28;19927;-83
2022/06/08 11:47:53;;;;;;;;;;;17.00;99.90;;;;;;4966014;28;19927;-83
2022/06/08 11:50:22;;;;;;;;;;;17.00;99.90;;;;;;4940776;28;20315;-86
2022/06/08 11:52:58;;;;;;;;;;;17.00;99.90;;;;;;4949708;28;19980;-85
2022/06/08 11:55:25;;;;;;;;;;;17.00;99.90;;;;;;4950561;28;19927;-86
2022/06/08 11:57:58;;;;;;;;;;;17.10;99.90;;;;;;4971854;28;19929;-85
2022/06/08 12:00:31;;;;;;;;;;;17.10;99.90;;;;;;4950158;28;20297;-82
2022/06/08 12:03:00;;;;;;;;;;;17.10;99.90;;;;;;4956566;28;20277;-83
2022/06/08 12:05:31;;;;;;;;;;;17.10;99.90;;;;;;4961936;28;19930;-83
2022/06/08 12:08:04;;;;;;;;;;;17.10;99.90;;;;;;4953548;28;19958;-83
2022/06/08 12:10:33;;;;;;;;;;;17.20;99.90;;;;;;4958621;28;20134;-82
2022/06/08 12:13:02;;;;;;;;;;;17.20;99.90;;;;;;4963859;28;19931;-84
2022/06/08 12:15:36;;;;;;;;;;;17.30;99.90;;;;;;4956763;28;19927;-83
2022/06/08 12:18:11;;;;;;;;;;;17.30;99.90;;;;;;4953807;28;19934;-83
2022/06/08 12:20:39;;;;;;;;;;;17.30;99.90;;;;;;4958132;28;19927;-84
2022/06/08 12:23:06;;;;;;;;;;;17.40;99.90;;;;;;4957629;28;19933;-82
2022/06/08 12:25:33;;;;;;;;;;;17.40;99.90;;;;;;4948763;28;19949;-83
2022/06/08 12:28:12;;;;;;;;;;;17.50;99.90;;;;;;4969158;28;19926;-82
2022/06/08 12:30:54;;;;;;;;;;;17.50;99.90;;;;;;4973321;28;20648;-83
2022/06/08 12:33:26;;;;;;;;;;;17.50;99.90;;;;;;4985172;28;19972;-84
2022/06/08 12:35:53;;;;;;;;;;;17.60;99.90;;;;;;4959451;28;19931;-83
2022/06/08 12:38:22;;;;;;;;;;;17.60;99.90;;;;;;4953065;28;19968;-84
2022/06/08 12:41:01;;;;;;;;;;;17.60;99.90;;;;;;4948032;28;19930;-87
2022/06/08 12:43:36;;;;;;;;;;;17.60;99.90;;;;;;4949863;28;19972;-83
2022/06/08 12:46:31;;;;;;;;;;;17.70;99.90;;;;;;4953926;28;19941;-83
2022/06/08 12:49:04;;;;;;;;;;;17.80;99.90;;;;;;4962560;28;19962;-83
2022/06/08 12:51:37;;;;;;;;;;;17.80;99.90;;;;;;4969942;28;19933;-83
2022/06/08 12:54:06;;;;;;;;;;;17.90;99.90;;;;;;4953672;28;21381;-83
2022/06/08 12:56:33;;;;;;;;;;;18.00;99.90;;;;;;4960992;28;19926;-82
2022/06/08 12:59:02;;;;;;;;;;;18.00;99.90;;;;;;4950236;28;19961;-83
2022/06/08 13:01:30;;;;;;;;;;;18.10;99.90;;;;;;4951212;28;20317;-83
2022/06/08 13:03:57;;;;;;;;;;;18.10;99.90;;;;;;4956892;28;19927;-81
2022/06/08 13:06:27;;;;;;;;;;;18.20;99.90;;;;;;4963661;28;19931;-83
2022/06/08 13:08:54;;;;;;;;;;;18.20;99.90;;;;;;4967327;28;19941;-82
2022/06/08 13:11:23;;;;;;;;;;;18.30;99.90;;;;;;4946989;28;19981;-83
2022/06/08 13:13:51;;;;;;;;;;;18.30;99.90;;;;;;4957729;28;19949;-83
2022/06/08 13:16:21;;;;;;;;;;;18.30;99.90;;;;;;4942963;28;19934;-84
2022/06/08 13:18:49;;;;;;;;;;;18.40;99.90;;;;;;4968982;28;19939;-83
2022/06/08 13:21:15;;;;;;;;;;;18.40;99.90;;;;;;4950401;28;20385;-83
2022/06/08 13:23:42;;;;;;;;;;;18.40;99.90;;;;;;4948467;28;19930;-81
2022/06/08 13:26:14;;;;;;;;;;;18.50;99.90;;;;;;4954861;28;19930;-83
2022/06/08 13:28:41;;;;;;;;;;;18.50;99.90;;;;;;4956308;28;19953;-83
2022/06/08 13:31:09;;;;;;;;;;;18.60;99.90;;;;;;4959119;28;19927;-83
2022/06/08 13:36:23;;;;;;;;;;;18.70;99.90;;;;;;4964552;28;19938;-83
2022/06/08 13:38:51;;;;;;;;;;;18.70;99.90;;;;;;4964029;28;19926;-83
2022/06/08 13:41:18;;;;;;;;;;;18.70;99.90;;;;;;4967788;28;19935;-83
2022/06/08 13:43:46;;;;;;;;;;;18.80;99.90;;;;;;4950998;28;19966;-83
2022/06/08 13:46:19;;;;;;;;;;;18.80;99.90;;;;;;4953739;28;20450;-83
2022/06/08 13:48:47;;;;;;;;;;;18.80;99.90;;;;;;4953373;28;19926;-83
2022/06/08 13:51:14;;;;;;;;;;;18.80;99.90;;;;;;4948373;28;19927;-83
2022/06/08 13:53:41;;;;;;;;;;;18.90;99.90;;;;;;4950679;28;19946;-83
2022/06/08 13:56:11;;;;;;;;;;;18.90;99.90;;;;;;4950224;28;19937;-83
2022/06/08 13:58:38;;;;;;;;;;;18.90;99.90;;;;;;4955674;28;20315;-82
2022/06/08 14:01:12;;;;;;;;;;;18.90;99.90;;;;;;4960085;28;19926;-82
2022/06/08 14:03:40;;;;;;;;;;;18.90;99.90;;;;;;4954543;28;19933;-83
2022/06/08 14:14:27;;;;;;;;;;;19.10;99.90;;;;;;5032025;28;19931;-83
2022/06/08 14:16:55;;;;;;;;;;;19.10;99.90;;;;;;4949696;28;19950;-83
2022/06/08 14:19:25;;;;;;;;;;;19.10;99.90;;;;;;4988831;28;20367;-84
2022/06/08 14:21:54;;;;;;;;;;;19.20;99.90;;;;;;5033397;28;19969;-82
2022/06/08 14:24:22;;;;;;;;;;;19.20;99.90;;;;;;4976913;28;20294;-83
2022/06/08 14:26:49;;;;;;;;;;;19.20;99.90;;;;;;4961134;28;19948;-83
2022/06/08 14:29:16;;;;;;;;;;;19.20;99.90;;;;;;4959775;28;19927;-83
2022/06/08 14:31:44;;;;;;;;;;;19.30;99.90;;;;;;4967286;28;19931;-83
2022/06/08 14:34:16;;;;;;;;;;;19.30;99.90;;;;;;4959107;28;19939;-83
2022/06/08 14:36:43;;;;;;;;;;;19.30;99.90;;;;;;4957752;28;20021;-84
2022/06/08 14:39:13;;;;;;;;;;;19.30;99.90;;;;;;4978658;28;20419;-83
2022/06/08 14:41:40;;;;;;;;;;;19.30;99.90;;;;;;4973254;28;19927;-83
2022/06/08 14:44:07;;;;;;;;;;;19.30;99.90;;;;;;4962393;28;19926;-83
2022/06/08 14:46:42;;;;;;;;;;;19.30;99.90;;;;;;4951668;28;19930;-83
2022/06/08 14:49:11;;;;;;;;;;;19.30;99.90;;;;;;4975469;28;19927;-84
2022/06/08 14:51:38;;;;;;;;;;;19.40;99.90;;;;;;4964504;28;19942;-83
2022/06/08 14:54:05;;;;;;;;;;;19.40;99.90;;;;;;4960775;28;19926;-82
2022/06/08 14:56:36;;;;;;;;;;;19.40;99.90;;;;;;4959175;28;19927;-83
2022/06/08 14:59:12;;;;;;;;;;;19.40;99.90;;;;;;4960480;28;20011;-83
2022/06/08 15:01:39;;;;;;;;;;;19.40;99.90;;;;;;4969621;28;19934;-84
2022/06/08 15:04:07;;;;;;;;;;;19.50;99.90;;;;;;4972366;28;19934;-84